sensor_id;sensor_type;location;lat;lon;timestamp;noise_LAeq;noise_LA_min;noise_LA_max;noise_LA01;noise_LA95
68599;Laerm;18038;50.166;18.908;2023-07-16T00:00:54;52.88;47.27;68.04;;
68599;Laerm;18038;50.166;18.908;2023-07-16T00:04:04;53.72;47.85;65.94;;
68599;Laerm;18038;50.166;18.908;2023-07-16T00:07:11;52.57;47.15;63.45;;
68599;Laerm;18038;50.166;18.908;2023-07-16T00:10:21;55.00;47.10;69.46;;
68599;Laerm;18038;50.166;18.908;2023-07-16T00:13:28;51.66;47.32;63.04;;
68599;Laerm;18038;50.166;18.908;2023-07-16T00:16:34;54.51;47.43;67.45;;
68599;Laerm;18038;50.166;18.908;2023-07-16T00:19:41;54.59;47.00;64.34;;
68599;Laerm;18038;50.166;18.908;2023-07-16T00:22:47;53.28;47.14;68.95;;
68599;Laerm;18038;50.166;18.908;2023-07-16T00:25:57;56.50;47.27;68.72;;
68599;Laerm;18038;50.166;18.908;2023-07-16T00:29:03;56.17;47.38;69.68;;
68599;Laerm;18038;50.166;18.908;2023-07-16T00:32:13;53.93;47.22;65.79;;
68599;Laerm;18038;50.166;18.908;2023-07-16T00:35:20;53.41;47.17;64.63;;
68599;Laerm;18038;50.166;18.908;2023-07-16T00:38:27;52.60;47.23;66.03;;
68599;Laerm;18038;50.166;18.908;2023-07-16T00:41:36;54.74;47.48;68.05;;
68599;Laerm;18038;50.166;18.908;2023-07-16T00:44:44;53.89;47.00;67.00;;
68599;Laerm;18038;50.166;18.908;2023-07-16T00:47:51;54.56;47.16;67.49;;
68599;Laerm;18038;50.166;18.908;2023-07-16T00:51:01;54.90;47.01;71.08;;
68599;Laerm;18038;50.166;18.908;2023-07-16T00:54:12;56.81;47.43;71.06;;
68599;Laerm;18038;50.166;18.908;2023-07-16T00:57:23;56.15;47.34;71.02;;
68599;Laerm;18038;50.166;18.908;2023-07-16T01:00:29;55.34;47.70;73.58;;
68599;Laerm;18038;50.166;18.908;2023-07-16T01:03:37;53.73;47.66;65.13;;
68599;Laerm;18038;50.166;18.908;2023-07-16T01:06:51;54.37;47.27;69.06;;
68599;Laerm;18038;50.166;18.908;2023-07-16T01:10:01;55.00;47.53;69.65;;
68599;Laerm;18038;50.166;18.908;2023-07-16T01:13:11;56.91;47.37;70.36;;
68599;Laerm;18038;50.166;18.908;2023-07-16T01:16:19;57.88;47.23;72.82;;
68599;Laerm;18038;50.166;18.908;2023-07-16T01:19:25;55.28;47.17;68.98;;
68599;Laerm;18038;50.166;18.908;2023-07-16T01:23:04;53.71;47.47;71.91;;
68599;Laerm;18038;50.166;18.908;2023-07-16T01:26:51;52.01;46.85;66.77;;
68599;Laerm;18038;50.166;18.908;2023-07-16T01:30:15;51.78;47.29;66.49;;
68599;Laerm;18038;50.166;18.908;2023-07-16T01:33:22;51.53;47.09;63.32;;
68599;Laerm;18038;50.166;18.908;2023-07-16T01:36:33;52.88;47.02;70.12;;
68599;Laerm;18038;50.166;18.908;2023-07-16T01:39:40;50.52;46.80;65.42;;
68599;Laerm;18038;50.166;18.908;2023-07-16T01:42:48;52.72;46.80;65.28;;
68599;Laerm;18038;50.166;18.908;2023-07-16T01:45:57;52.86;47.25;66.42;;
68599;Laerm;18038;50.166;18.908;2023-07-16T01:49:04;51.79;47.14;63.75;;
68599;Laerm;18038;50.166;18.908;2023-07-16T01:52:10;53.31;47.08;66.76;;
68599;Laerm;18038;50.166;18.908;2023-07-16T01:55:17;55.63;47.57;70.30;;
68599;Laerm;18038;50.166;18.908;2023-07-16T01:58:24;49.75;46.74;60.57;;
68599;Laerm;18038;50.166;18.908;2023-07-16T02:01:33;53.93;47.23;66.85;;
68599;Laerm;18038;50.166;18.908;2023-07-16T02:04:40;53.44;47.04;68.63;;
68599;Laerm;18038;50.166;18.908;2023-07-16T02:07:47;50.70;46.75;63.57;;
68599;Laerm;18038;50.166;18.908;2023-07-16T02:10:53;49.28;46.85;63.04;;
68599;Laerm;18038;50.166;18.908;2023-07-16T02:14:00;54.42;47.25;67.42;;
68599;Laerm;18038;50.166;18.908;2023-07-16T02:17:09;51.10;47.15;63.68;;
68599;Laerm;18038;50.166;18.908;2023-07-16T02:20:17;52.54;47.20;65.20;;
68599;Laerm;18038;50.166;18.908;2023-07-16T02:23:23;51.95;47.33;60.84;;
68599;Laerm;18038;50.166;18.908;2023-07-16T02:26:30;53.76;47.33;67.32;;
68599;Laerm;18038;50.166;18.908;2023-07-16T02:29:37;51.75;47.48;63.01;;
68599;Laerm;18038;50.166;18.908;2023-07-16T02:32:46;53.19;47.41;67.80;;
68599;Laerm;18038;50.166;18.908;2023-07-16T02:35:53;49.94;47.50;66.95;;
68599;Laerm;18038;50.166;18.908;2023-07-16T02:39:00;54.02;47.97;66.17;;
68599;Laerm;18038;50.166;18.908;2023-07-16T02:42:07;51.31;47.53;66.51;;
68599;Laerm;18038;50.166;18.908;2023-07-16T02:45:15;53.85;47.78;67.97;;
68599;Laerm;18038;50.166;18.908;2023-07-16T02:48:24;53.30;47.98;63.78;;
68599;Laerm;18038;50.166;18.908;2023-07-16T02:51:31;53.07;47.74;65.20;;
68599;Laerm;18038;50.166;18.908;2023-07-16T02:54:37;56.62;48.02;73.01;;
68599;Laerm;18038;50.166;18.908;2023-07-16T02:57:45;55.37;47.60;71.97;;
68599;Laerm;18038;50.166;18.908;2023-07-16T03:00:51;54.79;48.17;69.27;;
68599;Laerm;18038;50.166;18.908;2023-07-16T03:04:01;53.96;47.71;70.81;;
68599;Laerm;18038;50.166;18.908;2023-07-16T03:07:12;58.45;48.51;73.94;;
68599;Laerm;18038;50.166;18.908;2023-07-16T03:10:21;52.16;48.36;65.58;;
68599;Laerm;18038;50.166;18.908;2023-07-16T03:13:29;57.73;48.09;69.63;;
68599;Laerm;18038;50.166;18.908;2023-07-16T03:16:38;57.82;48.53;72.32;;
68599;Laerm;18038;50.166;18.908;2023-07-16T03:19:47;57.53;48.42;73.77;;
68599;Laerm;18038;50.166;18.908;2023-07-16T03:22:55;58.60;49.03;77.38;;
68599;Laerm;18038;50.166;18.908;2023-07-16T03:26:10;58.01;49.21;71.08;;
68599;Laerm;18038;50.166;18.908;2023-07-16T03:29:17;56.61;48.66;69.58;;
68599;Laerm;18038;50.166;18.908;2023-07-16T03:32:30;59.36;48.63;76.78;;
68599;Laerm;18038;50.166;18.908;2023-07-16T03:35:58;57.67;48.54;68.71;;
68599;Laerm;18038;50.166;18.908;2023-07-16T03:39:05;56.67;48.57;68.74;;
68599;Laerm;18038;50.166;18.908;2023-07-16T03:42:12;53.19;48.32;62.09;;
68599;Laerm;18038;50.166;18.908;2023-07-16T03:45:19;52.91;48.52;63.77;;
68599;Laerm;18038;50.166;18.908;2023-07-16T03:48:27;55.10;48.55;70.09;;
68599;Laerm;18038;50.166;18.908;2023-07-16T03:51:36;55.73;48.55;69.10;;
68599;Laerm;18038;50.166;18.908;2023-07-16T03:54:52;57.33;49.27;68.58;;
68599;Laerm;18038;50.166;18.908;2023-07-16T03:57:59;56.41;48.58;68.94;;
68599;Laerm;18038;50.166;18.908;2023-07-16T04:01:06;53.56;48.38;66.75;;
68599;Laerm;18038;50.166;18.908;2023-07-16T04:04:13;54.26;48.13;67.70;;
68599;Laerm;18038;50.166;18.908;2023-07-16T04:07:22;54.47;48.46;69.44;;
68599;Laerm;18038;50.166;18.908;2023-07-16T04:10:28;57.24;48.88;72.73;;
68599;Laerm;18038;50.166;18.908;2023-07-16T04:13:37;54.45;49.83;66.42;;
68599;Laerm;18038;50.166;18.908;2023-07-16T04:16:44;57.15;48.49;70.85;;
68599;Laerm;18038;50.166;18.908;2023-07-16T04:19:51;53.49;48.86;68.43;;
68599;Laerm;18038;50.166;18.908;2023-07-16T04:23:00;57.12;49.34;71.90;;
68599;Laerm;18038;50.166;18.908;2023-07-16T04:26:08;57.47;49.76;68.88;;
68599;Laerm;18038;50.166;18.908;2023-07-16T04:29:15;56.92;48.58;68.03;;
68599;Laerm;18038;50.166;18.908;2023-07-16T04:32:24;55.23;49.10;68.35;;
68599;Laerm;18038;50.166;18.908;2023-07-16T04:35:32;53.69;49.08;64.44;;
68599;Laerm;18038;50.166;18.908;2023-07-16T04:38:41;56.44;48.74;69.95;;
68599;Laerm;18038;50.166;18.908;2023-07-16T04:41:48;56.48;48.97;69.07;;
68599;Laerm;18038;50.166;18.908;2023-07-16T04:44:55;56.72;49.54;68.18;;
68599;Laerm;18038;50.166;18.908;2023-07-16T04:48:01;58.22;49.13;77.14;;
68599;Laerm;18038;50.166;18.908;2023-07-16T04:51:09;57.54;49.88;68.93;;
68599;Laerm;18038;50.166;18.908;2023-07-16T04:54:18;61.10;49.52;86.93;;
68599;Laerm;18038;50.166;18.908;2023-07-16T04:57:25;58.37;49.65;71.83;;
68599;Laerm;18038;50.166;18.908;2023-07-16T05:00:32;56.83;49.51;68.55;;
68599;Laerm;18038;50.166;18.908;2023-07-16T05:03:39;58.40;49.39;70.71;;
68599;Laerm;18038;50.166;18.908;2023-07-16T05:06:45;56.32;49.51;70.97;;
68599;Laerm;18038;50.166;18.908;2023-07-16T05:09:55;57.13;49.85;67.77;;
68599;Laerm;18038;50.166;18.908;2023-07-16T05:13:02;59.42;49.69;77.15;;
68599;Laerm;18038;50.166;18.908;2023-07-16T05:16:17;55.08;49.58;67.15;;
68599;Laerm;18038;50.166;18.908;2023-07-16T05:19:23;57.60;49.65;69.24;;
68599;Laerm;18038;50.166;18.908;2023-07-16T05:22:31;55.82;50.42;66.69;;
68599;Laerm;18038;50.166;18.908;2023-07-16T05:25:46;57.32;49.18;72.26;;
68599;Laerm;18038;50.166;18.908;2023-07-16T05:28:54;59.47;49.68;70.18;;
68599;Laerm;18038;50.166;18.908;2023-07-16T05:32:00;56.94;48.93;67.75;;
68599;Laerm;18038;50.166;18.908;2023-07-16T05:35:08;54.63;49.10;71.55;;
68599;Laerm;18038;50.166;18.908;2023-07-16T05:38:16;55.15;48.97;68.17;;
68599;Laerm;18038;50.166;18.908;2023-07-16T05:41:26;57.06;49.09;70.15;;
68599;Laerm;18038;50.166;18.908;2023-07-16T05:44:32;53.21;49.19;64.09;;
68599;Laerm;18038;50.166;18.908;2023-07-16T05:47:39;56.72;49.04;70.54;;
68599;Laerm;18038;50.166;18.908;2023-07-16T05:50:46;55.28;49.41;66.84;;
68599;Laerm;18038;50.166;18.908;2023-07-16T05:53:53;59.22;49.11;70.70;;
68599;Laerm;18038;50.166;18.908;2023-07-16T05:57:02;56.81;49.59;72.73;;
68599;Laerm;18038;50.166;18.908;2023-07-16T06:00:10;55.91;49.93;67.32;;
68599;Laerm;18038;50.166;18.908;2023-07-16T06:03:19;58.77;49.62;77.41;;
68599;Laerm;18038;50.166;18.908;2023-07-16T06:06:28;55.48;49.76;70.37;;
68599;Laerm;18038;50.166;18.908;2023-07-16T06:09:34;58.84;50.04;69.61;;
68599;Laerm;18038;50.166;18.908;2023-07-16T06:12:44;57.36;50.19;72.29;;
68599;Laerm;18038;50.166;18.908;2023-07-16T06:15:50;57.41;49.98;71.67;;
68599;Laerm;18038;50.166;18.908;2023-07-16T06:18:57;58.55;50.07;74.27;;
68599;Laerm;18038;50.166;18.908;2023-07-16T06:22:05;60.36;50.36;74.06;;
68599;Laerm;18038;50.166;18.908;2023-07-16T06:25:13;67.21;51.82;86.47;;
68599;Laerm;18038;50.166;18.908;2023-07-16T06:28:23;59.71;50.59;74.04;;
68599;Laerm;18038;50.166;18.908;2023-07-16T06:31:30;58.16;50.13;72.45;;
68599;Laerm;18038;50.166;18.908;2023-07-16T06:34:36;59.03;50.38;71.86;;
68599;Laerm;18038;50.166;18.908;2023-07-16T06:37:43;67.95;50.20;86.99;;
68599;Laerm;18038;50.166;18.908;2023-07-16T06:40:55;58.02;50.50;70.48;;
68599;Laerm;18038;50.166;18.908;2023-07-16T06:44:05;58.96;51.48;69.50;;
68599;Laerm;18038;50.166;18.908;2023-07-16T06:47:11;58.58;50.96;69.34;;
68599;Laerm;18038;50.166;18.908;2023-07-16T06:50:19;58.30;51.38;68.60;;
68599;Laerm;18038;50.166;18.908;2023-07-16T06:53:25;59.97;51.48;71.53;;
68599;Laerm;18038;50.166;18.908;2023-07-16T06:56:32;57.70;50.95;68.12;;
68599;Laerm;18038;50.166;18.908;2023-07-16T06:59:42;58.71;51.21;69.42;;
68599;Laerm;18038;50.166;18.908;2023-07-16T07:02:49;58.83;51.02;75.36;;
68599;Laerm;18038;50.166;18.908;2023-07-16T07:05:55;61.55;51.42;83.62;;
68599;Laerm;18038;50.166;18.908;2023-07-16T07:09:03;60.30;51.62;77.12;;
68599;Laerm;18038;50.166;18.908;2023-07-16T07:12:09;59.45;51.70;68.66;;
68599;Laerm;18038;50.166;18.908;2023-07-16T07:15:20;59.83;51.56;73.28;;
68599;Laerm;18038;50.166;18.908;2023-07-16T07:18:26;61.25;51.91;73.51;;
68599;Laerm;18038;50.166;18.908;2023-07-16T07:21:33;59.44;51.64;72.65;;
68599;Laerm;18038;50.166;18.908;2023-07-16T07:24:40;60.70;51.46;73.84;;
68599;Laerm;18038;50.166;18.908;2023-07-16T07:27:48;68.06;51.98;90.38;;
68599;Laerm;18038;50.166;18.908;2023-07-16T07:31:04;64.88;51.04;87.79;;
68599;Laerm;18038;50.166;18.908;2023-07-16T07:34:13;60.20;51.21;72.82;;
68599;Laerm;18038;50.166;18.908;2023-07-16T07:37:19;58.80;50.88;76.17;;
68599;Laerm;18038;50.166;18.908;2023-07-16T07:40:28;60.79;52.43;68.81;;
68599;Laerm;18038;50.166;18.908;2023-07-16T07:43:35;59.83;51.42;71.74;;
68599;Laerm;18038;50.166;18.908;2023-07-16T07:46:44;59.07;51.11;72.08;;
68599;Laerm;18038;50.166;18.908;2023-07-16T07:49:53;58.85;50.61;69.21;;
68599;Laerm;18038;50.166;18.908;2023-07-16T07:53:02;61.50;53.23;71.49;;
68599;Laerm;18038;50.166;18.908;2023-07-16T07:56:08;60.86;51.20;84.00;;
68599;Laerm;18038;50.166;18.908;2023-07-16T07:59:15;60.27;51.10;75.53;;
68599;Laerm;18038;50.166;18.908;2023-07-16T08:02:25;58.77;51.18;81.41;;
68599;Laerm;18038;50.166;18.908;2023-07-16T08:05:33;62.10;51.85;78.28;;
68599;Laerm;18038;50.166;18.908;2023-07-16T08:08:39;60.50;51.35;76.15;;
68599;Laerm;18038;50.166;18.908;2023-07-16T08:11:47;60.38;51.68;69.56;;
68599;Laerm;18038;50.166;18.908;2023-07-16T08:14:53;59.12;51.29;69.67;;
68599;Laerm;18038;50.166;18.908;2023-07-16T08:18:03;60.32;52.06;70.69;;
68599;Laerm;18038;50.166;18.908;2023-07-16T08:21:10;60.13;51.30;72.69;;
68599;Laerm;18038;50.166;18.908;2023-07-16T08:24:25;59.54;51.47;71.64;;
68599;Laerm;18038;50.166;18.908;2023-07-16T08:27:32;62.38;52.52;74.11;;
68599;Laerm;18038;50.166;18.908;2023-07-16T08:30:39;58.02;52.00;75.37;;
68599;Laerm;18038;50.166;18.908;2023-07-16T08:33:51;67.89;52.94;89.16;;
68599;Laerm;18038;50.166;18.908;2023-07-16T08:36:58;59.40;51.50;70.32;;
68599;Laerm;18038;50.166;18.908;2023-07-16T08:40:08;59.71;51.20;74.38;;
68599;Laerm;18038;50.166;18.908;2023-07-16T08:43:17;61.19;51.63;74.14;;
68599;Laerm;18038;50.166;18.908;2023-07-16T08:46:25;60.13;52.00;69.38;;
68599;Laerm;18038;50.166;18.908;2023-07-16T08:49:37;60.08;52.37;67.99;;
68599;Laerm;18038;50.166;18.908;2023-07-16T08:52:46;60.92;51.66;78.85;;
68599;Laerm;18038;50.166;18.908;2023-07-16T08:55:54;60.32;51.93;74.43;;
68599;Laerm;18038;50.166;18.908;2023-07-16T08:59:01;59.65;51.70;68.75;;
68599;Laerm;18038;50.166;18.908;2023-07-16T09:02:09;60.06;50.86;70.11;;
68599;Laerm;18038;50.166;18.908;2023-07-16T09:05:21;59.50;50.98;70.78;;
68599;Laerm;18038;50.166;18.908;2023-07-16T09:08:42;58.85;50.98;71.19;;
68599;Laerm;18038;50.166;18.908;2023-07-16T09:11:49;57.76;50.95;70.59;;
68599;Laerm;18038;50.166;18.908;2023-07-16T09:14:57;60.09;51.38;73.18;;
68599;Laerm;18038;50.166;18.908;2023-07-16T09:18:20;58.30;51.47;71.64;;
68599;Laerm;18038;50.166;18.908;2023-07-16T09:21:31;62.11;52.14;79.34;;
68599;Laerm;18038;50.166;18.908;2023-07-16T09:24:39;62.88;52.23;79.94;;
68599;Laerm;18038;50.166;18.908;2023-07-16T09:27:49;65.81;53.25;89.10;;
68599;Laerm;18038;50.166;18.908;2023-07-16T09:30:57;67.80;51.80;86.49;;
68599;Laerm;18038;50.166;18.908;2023-07-16T09:34:10;59.31;52.35;74.26;;
68599;Laerm;18038;50.166;18.908;2023-07-16T09:37:19;59.27;51.74;67.19;;
68599;Laerm;18038;50.166;18.908;2023-07-16T09:40:28;60.19;51.82;69.47;;
68599;Laerm;18038;50.166;18.908;2023-07-16T09:43:36;59.23;52.10;71.64;;
68599;Laerm;18038;50.166;18.908;2023-07-16T09:46:46;61.61;51.62;77.76;;
68599;Laerm;18038;50.166;18.908;2023-07-16T09:49:53;60.35;51.93;70.02;;
68599;Laerm;18038;50.166;18.908;2023-07-16T09:53:06;59.77;51.16;69.13;;
68599;Laerm;18038;50.166;18.908;2023-07-16T09:56:14;58.96;51.81;70.60;;
68599;Laerm;18038;50.166;18.908;2023-07-16T09:59:27;60.26;51.60;72.83;;
68599;Laerm;18038;50.166;18.908;2023-07-16T10:02:35;59.56;51.75;69.04;;
68599;Laerm;18038;50.166;18.908;2023-07-16T10:05:43;61.21;51.96;79.34;;
68599;Laerm;18038;50.166;18.908;2023-07-16T10:08:51;61.38;51.81;76.69;;
68599;Laerm;18038;50.166;18.908;2023-07-16T10:12:14;61.62;51.61;76.10;;
68599;Laerm;18038;50.166;18.908;2023-07-16T10:15:26;66.43;51.28;85.48;;
68599;Laerm;18038;50.166;18.908;2023-07-16T10:18:36;57.83;50.66;68.42;;
68599;Laerm;18038;50.166;18.908;2023-07-16T10:21:45;59.67;51.67;72.77;;
68599;Laerm;18038;50.166;18.908;2023-07-16T10:24:55;60.59;51.36;69.54;;
68599;Laerm;18038;50.166;18.908;2023-07-16T10:28:01;59.82;51.01;69.13;;
68599;Laerm;18038;50.166;18.908;2023-07-16T10:31:18;59.79;51.84;71.29;;
68599;Laerm;18038;50.166;18.908;2023-07-16T10:34:26;59.79;51.03;69.59;;
68599;Laerm;18038;50.166;18.908;2023-07-16T10:37:33;59.74;50.85;71.18;;
68599;Laerm;18038;50.166;18.908;2023-07-16T10:40:45;58.86;51.32;68.50;;
68599;Laerm;18038;50.166;18.908;2023-07-16T10:43:52;59.09;51.49;70.70;;
68599;Laerm;18038;50.166;18.908;2023-07-16T10:46:59;60.14;51.56;69.35;;
68599;Laerm;18038;50.166;18.908;2023-07-16T10:50:09;59.48;51.01;70.00;;
68599;Laerm;18038;50.166;18.908;2023-07-16T10:53:20;58.43;51.14;67.97;;
68599;Laerm;18038;50.166;18.908;2023-07-16T10:56:36;60.80;51.28;71.43;;
68599;Laerm;18038;50.166;18.908;2023-07-16T10:59:47;61.07;51.24;69.81;;
68599;Laerm;18038;50.166;18.908;2023-07-16T11:02:55;60.04;50.93;74.45;;
68599;Laerm;18038;50.166;18.908;2023-07-16T11:06:06;60.57;51.71;71.10;;
68599;Laerm;18038;50.166;18.908;2023-07-16T11:09:16;58.70;51.02;69.29;;
68599;Laerm;18038;50.166;18.908;2023-07-16T11:12:25;58.48;50.51;70.06;;
68599;Laerm;18038;50.166;18.908;2023-07-16T11:15:33;59.52;51.04;68.21;;
68599;Laerm;18038;50.166;18.908;2023-07-16T11:18:42;58.54;50.83;68.33;;
68599;Laerm;18038;50.166;18.908;2023-07-16T11:21:49;59.76;50.85;71.23;;
68599;Laerm;18038;50.166;18.908;2023-07-16T11:24:56;61.71;51.33;74.68;;
68599;Laerm;18038;50.166;18.908;2023-07-16T11:28:06;59.43;50.95;72.19;;
68599;Laerm;18038;50.166;18.908;2023-07-16T11:31:16;58.97;50.85;71.08;;
68599;Laerm;18038;50.166;18.908;2023-07-16T11:34:27;58.78;50.76;69.39;;
68599;Laerm;18038;50.166;18.908;2023-07-16T11:37:36;59.94;50.83;69.31;;
68599;Laerm;18038;50.166;18.908;2023-07-16T11:40:43;60.02;51.53;68.43;;
68599;Laerm;18038;50.166;18.908;2023-07-16T11:43:52;57.31;51.14;68.26;;
68599;Laerm;18038;50.166;18.908;2023-07-16T11:46:59;59.36;50.95;72.30;;
68599;Laerm;18038;50.166;18.908;2023-07-16T11:50:10;58.59;50.58;75.48;;
68599;Laerm;18038;50.166;18.908;2023-07-16T11:53:21;60.30;50.45;69.61;;
68599;Laerm;18038;50.166;18.908;2023-07-16T11:56:27;59.99;50.37;69.95;;
68599;Laerm;18038;50.166;18.908;2023-07-16T11:59:37;60.00;50.49;72.81;;
68599;Laerm;18038;50.166;18.908;2023-07-16T12:02:43;60.32;50.60;70.93;;
68599;Laerm;18038;50.166;18.908;2023-07-16T12:05:56;60.56;50.65;70.30;;
68599;Laerm;18038;50.166;18.908;2023-07-16T12:09:02;60.35;50.70;72.85;;
68599;Laerm;18038;50.166;18.908;2023-07-16T12:12:09;60.31;50.98;69.62;;
68599;Laerm;18038;50.166;18.908;2023-07-16T12:15:20;60.11;51.13;68.87;;
68599;Laerm;18038;50.166;18.908;2023-07-16T12:18:27;59.06;50.82;69.51;;
68599;Laerm;18038;50.166;18.908;2023-07-16T12:21:34;60.59;51.27;68.59;;
68599;Laerm;18038;50.166;18.908;2023-07-16T12:24:41;60.17;50.88;70.96;;
68599;Laerm;18038;50.166;18.908;2023-07-16T12:27:47;61.73;50.44;78.23;;
68599;Laerm;18038;50.166;18.908;2023-07-16T12:31:01;60.17;50.70;69.99;;
68599;Laerm;18038;50.166;18.908;2023-07-16T12:34:09;60.10;51.03;73.47;;
68599;Laerm;18038;50.166;18.908;2023-07-16T12:37:16;59.70;54.97;74.75;;
68599;Laerm;18038;50.166;18.908;2023-07-16T12:40:22;65.13;55.32;86.00;;
68599;Laerm;18038;50.166;18.908;2023-07-16T12:43:29;62.09;52.24;83.82;;
68599;Laerm;18038;50.166;18.908;2023-07-16T12:46:41;60.82;51.36;77.11;;
68599;Laerm;18038;50.166;18.908;2023-07-16T12:49:48;62.56;49.95;76.54;;
68599;Laerm;18038;50.166;18.908;2023-07-16T12:52:55;58.94;50.08;78.07;;
68599;Laerm;18038;50.166;18.908;2023-07-16T12:56:04;63.16;50.42;81.89;;
68599;Laerm;18038;50.166;18.908;2023-07-16T12:59:11;61.45;50.21;81.44;;
68599;Laerm;18038;50.166;18.908;2023-07-16T13:02:20;60.90;50.86;79.60;;
68599;Laerm;18038;50.166;18.908;2023-07-16T13:05:27;61.04;50.76;78.79;;
68599;Laerm;18038;50.166;18.908;2023-07-16T13:08:34;61.53;52.19;73.56;;
68599;Laerm;18038;50.166;18.908;2023-07-16T13:11:42;62.66;51.54;77.43;;
68599;Laerm;18038;50.166;18.908;2023-07-16T13:14:49;63.53;60.62;69.39;;
68599;Laerm;18038;50.166;18.908;2023-07-16T13:17:59;63.34;60.84;69.87;;
68599;Laerm;18038;50.166;18.908;2023-07-16T13:21:06;63.70;60.95;69.04;;
68599;Laerm;18038;50.166;18.908;2023-07-16T13:24:14;65.05;60.79;80.39;;
68599;Laerm;18038;50.166;18.908;2023-07-16T13:27:24;64.68;61.10;78.87;;
68599;Laerm;18038;50.166;18.908;2023-07-16T13:30:30;63.48;60.91;69.46;;
68599;Laerm;18038;50.166;18.908;2023-07-16T13:33:40;64.00;60.30;78.30;;
68599;Laerm;18038;50.166;18.908;2023-07-16T13:36:46;63.59;60.77;71.62;;
68599;Laerm;18038;50.166;18.908;2023-07-16T13:39:54;63.86;60.41;73.58;;
68599;Laerm;18038;50.166;18.908;2023-07-16T13:43:00;63.16;49.93;80.42;;
68599;Laerm;18038;50.166;18.908;2023-07-16T13:46:07;57.41;50.14;67.78;;
68599;Laerm;18038;50.166;18.908;2023-07-16T13:49:17;60.80;50.78;76.43;;
68599;Laerm;18038;50.166;18.908;2023-07-16T13:52:24;60.91;50.14;70.83;;
68599;Laerm;18038;50.166;18.908;2023-07-16T13:55:30;59.82;51.50;70.35;;
68599;Laerm;18038;50.166;18.908;2023-07-16T13:58:38;61.21;50.65;73.01;;
68599;Laerm;18038;50.166;18.908;2023-07-16T14:01:44;61.59;51.79;70.42;;
68599;Laerm;18038;50.166;18.908;2023-07-16T14:04:54;59.96;50.67;74.01;;
68599;Laerm;18038;50.166;18.908;2023-07-16T14:08:00;61.09;50.74;70.80;;
68599;Laerm;18038;50.166;18.908;2023-07-16T14:11:07;59.40;50.51;72.41;;
68599;Laerm;18038;50.166;18.908;2023-07-16T14:14:14;60.46;51.04;72.38;;
68599;Laerm;18038;50.166;18.908;2023-07-16T14:17:22;63.18;50.84;79.64;;
68599;Laerm;18038;50.166;18.908;2023-07-16T14:20:31;60.58;51.17;72.66;;
68599;Laerm;18038;50.166;18.908;2023-07-16T14:23:38;59.99;50.36;68.38;;
68599;Laerm;18038;50.166;18.908;2023-07-16T14:26:44;59.51;50.62;68.92;;
68599;Laerm;18038;50.166;18.908;2023-07-16T14:29:51;59.41;50.23;68.53;;
68599;Laerm;18038;50.166;18.908;2023-07-16T14:33:12;60.28;50.53;71.55;;
68599;Laerm;18038;50.166;18.908;2023-07-16T14:36:22;60.37;50.72;77.16;;
68599;Laerm;18038;50.166;18.908;2023-07-16T14:39:29;61.15;50.91;72.16;;
68599;Laerm;18038;50.166;18.908;2023-07-16T14:42:36;59.79;50.56;70.15;;
68599;Laerm;18038;50.166;18.908;2023-07-16T14:45:42;63.14;50.57;83.21;;
68599;Laerm;18038;50.166;18.908;2023-07-16T14:48:49;62.94;51.56;80.23;;
68599;Laerm;18038;50.166;18.908;2023-07-16T14:52:01;63.25;51.10;81.95;;
68599;Laerm;18038;50.166;18.908;2023-07-16T14:55:12;59.98;51.08;70.84;;
68599;Laerm;18038;50.166;18.908;2023-07-16T14:58:19;61.19;51.37;71.06;;
68599;Laerm;18038;50.166;18.908;2023-07-16T15:01:27;59.94;50.88;79.11;;
68599;Laerm;18038;50.166;18.908;2023-07-16T15:04:33;58.73;50.84;68.62;;
68599;Laerm;18038;50.166;18.908;2023-07-16T15:07:44;60.44;51.09;70.95;;
68599;Laerm;18038;50.166;18.908;2023-07-16T15:10:53;59.04;51.08;70.29;;
68599;Laerm;18038;50.166;18.908;2023-07-16T15:14:00;59.59;51.08;68.30;;
68599;Laerm;18038;50.166;18.908;2023-07-16T15:17:07;60.47;52.20;68.92;;
68599;Laerm;18038;50.166;18.908;2023-07-16T15:20:14;63.61;51.58;86.12;;
68599;Laerm;18038;50.166;18.908;2023-07-16T15:23:24;60.98;52.63;76.93;;
68599;Laerm;18038;50.166;18.908;2023-07-16T15:26:31;61.72;51.36;75.25;;
68599;Laerm;18038;50.166;18.908;2023-07-16T15:29:38;58.94;51.07;71.75;;
68599;Laerm;18038;50.166;18.908;2023-07-16T15:32:45;60.70;51.78;69.94;;
68599;Laerm;18038;50.166;18.908;2023-07-16T15:35:51;60.77;51.51;77.61;;
68599;Laerm;18038;50.166;18.908;2023-07-16T15:39:01;61.01;50.65;71.14;;
68599;Laerm;18038;50.166;18.908;2023-07-16T15:42:07;60.56;51.37;74.45;;
68599;Laerm;18038;50.166;18.908;2023-07-16T15:45:15;58.99;51.26;71.15;;
68599;Laerm;18038;50.166;18.908;2023-07-16T15:48:21;61.16;51.24;81.78;;
68599;Laerm;18038;50.166;18.908;2023-07-16T15:51:29;60.95;51.74;75.43;;
68599;Laerm;18038;50.166;18.908;2023-07-16T15:54:41;62.22;52.06;79.01;;
68599;Laerm;18038;50.166;18.908;2023-07-16T15:57:49;61.37;51.70;77.58;;
68599;Laerm;18038;50.166;18.908;2023-07-16T16:00:55;60.02;51.87;73.58;;
68599;Laerm;18038;50.166;18.908;2023-07-16T16:04:03;60.33;52.31;71.47;;
68599;Laerm;18038;50.166;18.908;2023-07-16T16:07:09;60.66;51.65;81.05;;
68599;Laerm;18038;50.166;18.908;2023-07-16T16:10:20;60.92;52.36;73.66;;
68599;Laerm;18038;50.166;18.908;2023-07-16T16:13:30;60.28;52.42;71.62;;
68599;Laerm;18038;50.166;18.908;2023-07-16T16:16:37;61.44;52.04;73.29;;
68599;Laerm;18038;50.166;18.908;2023-07-16T16:20:01;60.21;51.65;68.49;;
68599;Laerm;18038;50.166;18.908;2023-07-16T16:23:12;60.97;51.66;72.16;;
68599;Laerm;18038;50.166;18.908;2023-07-16T16:26:21;62.64;52.26;75.67;;
68599;Laerm;18038;50.166;18.908;2023-07-16T16:29:28;62.72;52.19;76.71;;
68599;Laerm;18038;50.166;18.908;2023-07-16T16:32:35;60.27;51.64;68.14;;
68599;Laerm;18038;50.166;18.908;2023-07-16T16:35:42;62.13;52.08;74.29;;
68599;Laerm;18038;50.166;18.908;2023-07-16T16:38:49;60.76;51.31;74.58;;
68599;Laerm;18038;50.166;18.908;2023-07-16T16:41:58;60.51;51.86;71.42;;
68599;Laerm;18038;50.166;18.908;2023-07-16T16:45:07;63.43;52.64;79.32;;
68599;Laerm;18038;50.166;18.908;2023-07-16T16:48:14;60.82;52.63;71.08;;
68599;Laerm;18038;50.166;18.908;2023-07-16T16:51:21;61.21;51.73;70.82;;
68599;Laerm;18038;50.166;18.908;2023-07-16T16:54:28;61.14;52.46;71.90;;
68599;Laerm;18038;50.166;18.908;2023-07-16T16:57:37;61.31;51.44;75.66;;
68599;Laerm;18038;50.166;18.908;2023-07-16T17:00:44;63.00;52.75;74.89;;
68599;Laerm;18038;50.166;18.908;2023-07-16T17:03:51;60.91;51.97;72.75;;
68599;Laerm;18038;50.166;18.908;2023-07-16T17:07:00;62.99;52.41;76.58;;
68599;Laerm;18038;50.166;18.908;2023-07-16T17:10:08;63.30;54.09;71.46;;
68599;Laerm;18038;50.166;18.908;2023-07-16T17:13:18;59.33;51.50;70.91;;
68599;Laerm;18038;50.166;18.908;2023-07-16T17:16:24;60.07;51.44;70.67;;
68599;Laerm;18038;50.166;18.908;2023-07-16T17:19:32;60.98;51.45;70.55;;